createdAt,value
2023-03-23T15:57:54.129Z,12.54
2023-03-23T16:00:24.792Z,12.53
2023-03-23T16:02:57.545Z,12.47
2023-03-23T16:05:29.252Z,12.43
2023-03-23T16:07:59.392Z,12.32
2023-03-23T16:10:29.666Z,12.33
2023-03-23T16:12:59.693Z,12.33
2023-03-23T16:15:29.327Z,12.30
2023-03-23T16:17:59.479Z,12.33
2023-03-23T16:20:33.502Z,12.33
2023-03-23T16:23:03.674Z,12.28
2023-03-23T16:25:33.531Z,12.24
2023-03-23T16:28:03.511Z,12.23
2023-03-23T16:30:35.009Z,12.22
2023-03-23T16:33:05.098Z,12.23
2023-03-23T16:35:37.808Z,12.21
2023-03-23T16:38:09.991Z,12.15
2023-03-23T16:40:39.876Z,12.16
2023-03-23T16:43:09.862Z,12.12
2023-03-23T16:45:42.421Z,12.10
2023-03-23T16:48:14.413Z,12.07
2023-03-23T16:50:45.957Z,12.05
2023-03-23T16:53:16.529Z,12.12
2023-03-23T16:55:49.909Z,12.12
2023-03-23T16:58:22.299Z,11.97
2023-03-23T17:00:54.368Z,10.04
2023-03-23T17:03:27.091Z,9.02
2023-03-23T17:06:09.089Z,8.61
2023-03-23T17:08:46.169Z,8.45
2023-03-23T17:11:18.400Z,8.39
2023-03-23T17:13:50.300Z,8.36
2023-03-23T17:16:21.761Z,8.33
2023-03-23T17:18:52.585Z,8.19
2023-03-23T17:21:26.115Z,8.20
2023-03-23T17:23:56.351Z,8.15
2023-03-23T17:26:26.444Z,8.10
2023-03-23T17:28:56.427Z,8.14
2023-03-23T17:31:28.472Z,8.13
2023-03-23T17:34:19.874Z,8.18
2023-03-23T17:36:51.620Z,8.09
2023-03-23T17:39:22.269Z,8.00
2023-03-23T17:41:54.675Z,8.02
2023-03-23T17:44:25.739Z,8.03
2023-03-23T17:46:56.780Z,8.06
2023-03-23T17:49:26.840Z,8.07
2023-03-23T17:51:58.922Z,8.05
2023-03-23T17:54:29.866Z,8.00
2023-03-23T17:57:04.274Z,8.09
2023-03-23T17:59:34.490Z,8.10
2023-03-23T18:02:04.142Z,8.06
2023-03-23T18:04:34.251Z,8.04
2023-03-23T18:07:05.669Z,7.99
2023-03-23T18:09:36.175Z,8.01
2023-03-23T18:12:06.055Z,8.03
2023-03-23T18:14:36.331Z,8.02
2023-03-23T18:17:06.136Z,8.06
2023-03-23T18:19:37.030Z,8.08
2023-03-23T18:22:08.313Z,8.10
2023-03-23T18:24:38.477Z,8.12
2023-03-23T18:27:08.839Z,8.12
2023-03-23T18:29:38.867Z,8.13
2023-03-23T18:32:08.908Z,8.08
2023-03-23T18:34:42.216Z,8.12
2023-03-23T18:37:13.541Z,8.10
2023-03-23T18:39:43.483Z,8.05
2023-03-23T18:42:13.272Z,8.07
2023-03-23T18:44:43.421Z,8.05
2023-03-23T18:47:13.204Z,8.00
2023-03-23T18:49:43.084Z,8.03
2023-03-23T18:52:14.677Z,8.06
2023-03-23T18:54:45.543Z,8.06
2023-03-23T18:57:15.703Z,8.04
2023-03-23T18:59:45.663Z,7.95
2023-03-23T19:02:18.548Z,7.92
2023-03-23T19:04:48.737Z,7.96
2023-03-23T19:07:20.185Z,7.98
2023-03-23T19:09:53.044Z,8.03
2023-03-23T19:12:23.493Z,8.00
2023-03-23T19:14:53.732Z,7.96
2023-03-23T19:17:25.388Z,7.91
2023-03-23T19:19:55.393Z,7.91
2023-03-23T19:22:26.539Z,7.94
2023-03-23T19:24:56.495Z,7.95
2023-03-23T19:27:26.394Z,7.95
2023-03-23T19:29:56.564Z,7.94
2023-03-23T19:32:26.443Z,7.99
2023-03-23T19:34:56.670Z,8.07
2023-03-23T19:37:28.057Z,8.13
2023-03-23T19:40:00.093Z,8.23
2023-03-23T19:42:29.960Z,8.26
2023-03-23T19:44:59.974Z,8.35
2023-03-23T19:47:29.892Z,8.44
2023-03-23T19:50:01.238Z,8.53
2023-03-23T19:52:32.388Z,8.54
2023-03-23T19:55:02.907Z,8.57
2023-03-23T19:57:32.832Z,8.57
2023-03-23T20:00:03.077Z,8.63
2023-03-23T20:02:34.283Z,8.63
2023-03-23T20:05:04.885Z,8.64
2023-03-23T20:07:40.799Z,8.64
2023-03-23T20:10:12.343Z,8.70
2023-03-23T20:12:42.473Z,8.71
2023-03-23T20:15:12.580Z,8.74
2023-03-23T20:17:42.514Z,8.77
2023-03-23T20:20:12.881Z,8.82
2023-03-23T20:22:44.110Z,8.89
2023-03-23T20:25:14.568Z,8.86
2023-03-23T20:27:45.009Z,8.88
2023-03-23T20:30:15.656Z,8.81
2023-03-23T20:32:46.754Z,8.74
2023-03-23T20:35:16.872Z,8.72
2023-03-23T20:37:50.854Z,8.59
2023-03-23T20:40:21.973Z,8.52
2023-03-23T20:42:54.591Z,8.43
2023-03-23T20:45:24.691Z,8.36
2023-03-23T20:47:54.940Z,8.26
2023-03-23T20:50:25.204Z,8.17
2023-03-23T20:52:57.689Z,8.05
2023-03-23T20:55:27.955Z,7.99
2023-03-23T20:57:59.648Z,7.91
2023-03-23T21:00:29.667Z,7.80
2023-03-23T21:02:59.335Z,7.74
2023-03-23T21:05:29.411Z,7.70
2023-03-23T21:08:00.512Z,7.69
2023-03-23T21:10:30.706Z,7.72
2023-03-23T21:13:00.426Z,7.69
2023-03-23T21:15:30.882Z,7.64
2023-03-23T21:18:00.524Z,7.58
2023-03-23T21:20:30.659Z,7.56
2023-03-23T21:23:03.012Z,7.56
2023-03-23T21:25:35.442Z,7.47
2023-03-23T21:28:06.968Z,7.44
2023-03-23T21:30:37.021Z,7.44
2023-03-23T21:33:08.374Z,7.40
2023-03-23T21:35:38.726Z,7.35
2023-03-23T21:38:14.491Z,7.32
2023-03-23T21:40:45.084Z,7.30
2023-03-23T21:43:16.749Z,7.20
2023-03-23T21:45:47.141Z,7.25
2023-03-23T21:48:16.939Z,7.25
2023-03-23T21:50:47.030Z,7.27
2023-03-23T21:53:18.781Z,7.17
2023-03-23T21:55:51.649Z,7.07
2023-03-23T21:58:22.205Z,7.03
2023-03-23T22:00:54.338Z,6.99
2023-03-23T22:03:24.769Z,6.94
2023-03-23T22:05:55.705Z,6.81
2023-03-23T22:08:28.054Z,6.72
2023-03-23T22:11:01.845Z,6.57
2023-03-23T22:13:32.901Z,6.51
2023-03-23T22:16:03.900Z,6.41
2023-03-23T22:18:35.001Z,6.41
2023-03-23T22:21:05.710Z,6.39
2023-03-23T22:23:37.179Z,6.43
2023-03-23T22:26:07.727Z,6.53
2023-03-23T22:28:38.575Z,6.54
2023-03-23T22:31:10.142Z,6.64
2023-03-23T22:33:40.373Z,6.50
2023-03-23T22:36:10.990Z,6.39
2023-03-23T22:38:43.679Z,6.58
2023-03-23T22:41:17.090Z,6.68
2023-03-23T22:43:46.978Z,6.75
2023-03-23T22:46:17.245Z,6.77
2023-03-23T22:48:47.300Z,6.81
2023-03-23T22:51:19.601Z,6.99
2023-03-23T22:53:51.330Z,7.11
2023-03-23T22:56:21.798Z,7.16
2023-03-23T22:58:51.539Z,7.13
2023-03-23T23:01:22.567Z,7.17
2023-03-23T23:03:52.415Z,7.22
2023-03-23T23:06:22.738Z,7.25
2023-03-23T23:08:53.948Z,7.24
2023-03-23T23:11:24.866Z,7.26
2023-03-23T23:13:54.495Z,7.29
2023-03-23T23:16:26.521Z,7.29
2023-03-23T23:18:56.748Z,7.28
2023-03-23T23:21:29.271Z,7.23
2023-03-23T23:24:00.541Z,7.28
2023-03-23T23:26:31.140Z,7.30
2023-03-23T23:29:01.437Z,7.25
2023-03-23T23:31:33.904Z,7.18
2023-03-23T23:34:04.045Z,7.14
2023-03-23T23:36:34.224Z,7.10
2023-03-23T23:39:06.076Z,7.04
2023-03-23T23:41:36.351Z,7.05
2023-03-23T23:44:06.461Z,7.04
2023-03-23T23:46:36.914Z,7.02
2023-03-23T23:49:07.309Z,6.94
2023-03-23T23:51:37.947Z,6.90
2023-03-23T23:54:09.152Z,6.84
2023-03-23T23:56:39.262Z,6.76
2023-03-23T23:59:09.141Z,6.72
